sensor_id;sensor_type;location;lat;lon;timestamp;P1;durP1;ratioP1;P2;durP2;ratioP2
10007;SDS011;5043;41.766;26.204;2024-02-23T00:02:16;19.63;;;13.77;;
10007;SDS011;5043;41.766;26.204;2024-02-23T00:04:42;21.65;;;14.90;;
10007;SDS011;5043;41.766;26.204;2024-02-23T00:07:07;15.13;;;12.93;;
10007;SDS011;5043;41.766;26.204;2024-02-23T00:09:33;16.70;;;13.95;;
10007;SDS011;5043;41.766;26.204;2024-02-23T00:11:59;17.45;;;14.38;;
10007;SDS011;5043;41.766;26.204;2024-02-23T00:14:24;18.85;;;14.88;;
10007;SDS011;5043;41.766;26.204;2024-02-23T00:16:50;16.75;;;14.20;;
10007;SDS011;5043;41.766;26.204;2024-02-23T00:19:15;17.73;;;14.40;;
10007;SDS011;5043;41.766;26.204;2024-02-23T00:21:43;20.15;;;14.82;;
10007;SDS011;5043;41.766;26.204;2024-02-23T00:24:12;18.00;;;14.35;;
10007;SDS011;5043;41.766;26.204;2024-02-23T00:26:38;18.58;;;15.07;;
10007;SDS011;5043;41.766;26.204;2024-02-23T00:29:03;20.65;;;14.80;;
10007;SDS011;5043;41.766;26.204;2024-02-23T00:31:29;18.73;;;15.38;;
10007;SDS011;5043;41.766;26.204;2024-02-23T00:33:54;18.35;;;15.57;;
10007;SDS011;5043;41.766;26.204;2024-02-23T00:36:20;16.58;;;14.75;;
10007;SDS011;5043;41.766;26.204;2024-02-23T00:38:45;18.05;;;14.98;;
10007;SDS011;5043;41.766;26.204;2024-02-23T00:41:11;19.55;;;14.82;;
10007;SDS011;5043;41.766;26.204;2024-02-23T00:43:37;18.55;;;15.18;;
10007;SDS011;5043;41.766;26.204;2024-02-23T00:46:03;19.67;;;15.65;;
10007;SDS011;5043;41.766;26.204;2024-02-23T00:48:29;22.00;;;15.85;;
10007;SDS011;5043;41.766;26.204;2024-02-23T00:50:55;20.50;;;15.57;;
10007;SDS011;5043;41.766;26.204;2024-02-23T00:53:20;19.33;;;15.18;;
10007;SDS011;5043;41.766;26.204;2024-02-23T00:55:46;20.00;;;15.90;;
10007;SDS011;5043;41.766;26.204;2024-02-23T00:58:12;19.67;;;15.52;;
10007;SDS011;5043;41.766;26.204;2024-02-23T01:00:38;18.20;;;13.93;;
10007;SDS011;5043;41.766;26.204;2024-02-23T01:03:03;19.52;;;16.10;;
10007;SDS011;5043;41.766;26.204;2024-02-23T01:05:29;19.75;;;15.30;;
10007;SDS011;5043;41.766;26.204;2024-02-23T01:07:54;20.67;;;14.43;;
10007;SDS011;5043;41.766;26.204;2024-02-23T01:10:20;21.02;;;14.88;;
10007;SDS011;5043;41.766;26.204;2024-02-23T01:12:45;19.48;;;14.38;;
10007;SDS011;5043;41.766;26.204;2024-02-23T01:15:11;18.13;;;14.90;;
10007;SDS011;5043;41.766;26.204;2024-02-23T01:17:36;15.80;;;14.02;;
10007;SDS011;5043;41.766;26.204;2024-02-23T01:20:03;18.83;;;15.13;;
10007;SDS011;5043;41.766;26.204;2024-02-23T01:22:29;17.70;;;14.75;;
10007;SDS011;5043;41.766;26.204;2024-02-23T01:24:54;17.75;;;15.02;;
10007;SDS011;5043;41.766;26.204;2024-02-23T01:27:20;18.08;;;15.68;;
10007;SDS011;5043;41.766;26.204;2024-02-23T01:29:45;23.85;;;17.23;;
10007;SDS011;5043;41.766;26.204;2024-02-23T01:32:11;23.95;;;17.30;;
10007;SDS011;5043;41.766;26.204;2024-02-23T01:34:36;23.40;;;15.93;;
10007;SDS011;5043;41.766;26.204;2024-02-23T01:37:01;19.55;;;16.08;;
10007;SDS011;5043;41.766;26.204;2024-02-23T01:39:28;18.77;;;16.65;;
10007;SDS011;5043;41.766;26.204;2024-02-23T01:41:53;21.77;;;17.40;;
10007;SDS011;5043;41.766;26.204;2024-02-23T01:44:20;21.90;;;16.25;;
10007;SDS011;5043;41.766;26.204;2024-02-23T01:46:46;19.60;;;16.45;;
10007;SDS011;5043;41.766;26.204;2024-02-23T01:49:12;20.58;;;16.40;;
10007;SDS011;5043;41.766;26.204;2024-02-23T01:51:38;19.27;;;15.80;;
10007;SDS011;5043;41.766;26.204;2024-02-23T01:54:04;20.55;;;16.02;;
10007;SDS011;5043;41.766;26.204;2024-02-23T01:56:31;23.98;;;18.02;;
10007;SDS011;5043;41.766;26.204;2024-02-23T01:58:58;22.23;;;17.45;;
10007;SDS011;5043;41.766;26.204;2024-02-23T02:01:25;20.73;;;18.20;;
10007;SDS011;5043;41.766;26.204;2024-02-23T02:03:51;19.23;;;15.50;;
10007;SDS011;5043;41.766;26.204;2024-02-23T02:06:16;22.58;;;16.33;;
10007;SDS011;5043;41.766;26.204;2024-02-23T02:08:42;19.73;;;16.15;;
10007;SDS011;5043;41.766;26.204;2024-02-23T02:11:08;20.67;;;16.17;;
10007;SDS011;5043;41.766;26.204;2024-02-23T02:13:33;19.63;;;16.13;;
10007;SDS011;5043;41.766;26.204;2024-02-23T02:15:59;24.50;;;17.13;;
10007;SDS011;5043;41.766;26.204;2024-02-23T02:18:27;21.30;;;17.25;;
10007;SDS011;5043;41.766;26.204;2024-02-23T02:20:54;21.42;;;16.65;;
10007;SDS011;5043;41.766;26.204;2024-02-23T02:23:22;18.70;;;15.68;;
10007;SDS011;5043;41.766;26.204;2024-02-23T02:25:53;23.25;;;15.88;;
10007;SDS011;5043;41.766;26.204;2024-02-23T02:28:20;19.23;;;15.40;;
10007;SDS011;5043;41.766;26.204;2024-02-23T02:30:45;18.60;;;16.20;;
10007;SDS011;5043;41.766;26.204;2024-02-23T02:33:11;20.60;;;16.63;;
10007;SDS011;5043;41.766;26.204;2024-02-23T02:35:37;18.58;;;15.77;;
10007;SDS011;5043;41.766;26.204;2024-02-23T02:38:02;21.58;;;17.15;;
10007;SDS011;5043;41.766;26.204;2024-02-23T02:40:27;21.60;;;17.45;;
10007;SDS011;5043;41.766;26.204;2024-02-23T02:42:53;20.67;;;17.13;;
10007;SDS011;5043;41.766;26.204;2024-02-23T02:45:18;21.92;;;15.98;;
10007;SDS011;5043;41.766;26.204;2024-02-23T02:47:44;19.48;;;16.15;;
10007;SDS011;5043;41.766;26.204;2024-02-23T02:50:09;22.02;;;17.75;;
10007;SDS011;5043;41.766;26.204;2024-02-23T02:52:35;21.67;;;17.85;;
10007;SDS011;5043;41.766;26.204;2024-02-23T02:55:00;20.77;;;16.65;;
10007;SDS011;5043;41.766;26.204;2024-02-23T02:57:25;21.63;;;16.42;;
10007;SDS011;5043;41.766;26.204;2024-02-23T02:59:51;20.98;;;17.80;;
10007;SDS011;5043;41.766;26.204;2024-02-23T03:02:16;22.35;;;16.55;;
10007;SDS011;5043;41.766;26.204;2024-02-23T03:04:48;21.70;;;17.20;;
10007;SDS011;5043;41.766;26.204;2024-02-23T03:07:14;22.15;;;17.10;;
10007;SDS011;5043;41.766;26.204;2024-02-23T03:09:41;21.13;;;17.33;;
10007;SDS011;5043;41.766;26.204;2024-02-23T03:12:06;22.35;;;18.38;;
10007;SDS011;5043;41.766;26.204;2024-02-23T03:14:32;19.80;;;16.30;;
10007;SDS011;5043;41.766;26.204;2024-02-23T03:16:59;22.80;;;17.40;;
10007;SDS011;5043;41.766;26.204;2024-02-23T03:19:24;25.27;;;18.52;;
10007;SDS011;5043;41.766;26.204;2024-02-23T03:21:51;20.05;;;16.38;;
10007;SDS011;5043;41.766;26.204;2024-02-23T03:24:16;22.83;;;18.05;;
10007;SDS011;5043;41.766;26.204;2024-02-23T03:26:42;22.77;;;17.40;;
10007;SDS011;5043;41.766;26.204;2024-02-23T03:29:08;20.45;;;17.23;;
10007;SDS011;5043;41.766;26.204;2024-02-23T03:31:34;23.70;;;17.52;;
10007;SDS011;5043;41.766;26.204;2024-02-23T03:34:00;23.02;;;18.05;;
10007;SDS011;5043;41.766;26.204;2024-02-23T03:36:25;22.48;;;17.48;;
10007;SDS011;5043;41.766;26.204;2024-02-23T03:38:51;22.13;;;17.00;;
10007;SDS011;5043;41.766;26.204;2024-02-23T03:41:17;23.67;;;17.83;;
10007;SDS011;5043;41.766;26.204;2024-02-23T03:43:43;21.83;;;17.42;;
10007;SDS011;5043;41.766;26.204;2024-02-23T03:46:08;21.58;;;17.50;;
10007;SDS011;5043;41.766;26.204;2024-02-23T03:48:33;23.73;;;18.27;;
10007;SDS011;5043;41.766;26.204;2024-02-23T03:50:59;25.17;;;18.60;;
10007;SDS011;5043;41.766;26.204;2024-02-23T03:53:25;22.95;;;18.67;;
10007;SDS011;5043;41.766;26.204;2024-02-23T03:55:50;31.20;;;21.95;;
10007;SDS011;5043;41.766;26.204;2024-02-23T03:58:15;32.80;;;21.88;;
10007;SDS011;5043;41.766;26.204;2024-02-23T04:00:42;25.23;;;19.48;;
10007;SDS011;5043;41.766;26.204;2024-02-23T04:03:08;26.98;;;19.67;;
10007;SDS011;5043;41.766;26.204;2024-02-23T04:05:34;25.90;;;20.42;;
10007;SDS011;5043;41.766;26.204;2024-02-23T04:07:59;24.90;;;19.75;;
10007;SDS011;5043;41.766;26.204;2024-02-23T04:10:24;21.92;;;18.00;;
10007;SDS011;5043;41.766;26.204;2024-02-23T04:12:50;24.15;;;19.85;;
10007;SDS011;5043;41.766;26.204;2024-02-23T04:15:16;24.40;;;18.98;;
10007;SDS011;5043;41.766;26.204;2024-02-23T04:17:41;26.83;;;20.45;;
10007;SDS011;5043;41.766;26.204;2024-02-23T04:20:07;26.40;;;19.42;;
10007;SDS011;5043;41.766;26.204;2024-02-23T04:22:34;24.10;;;18.10;;
10007;SDS011;5043;41.766;26.204;2024-02-23T04:25:01;22.35;;;19.20;;
10007;SDS011;5043;41.766;26.204;2024-02-23T04:27:26;28.05;;;18.70;;
10007;SDS011;5043;41.766;26.204;2024-02-23T04:29:51;29.75;;;21.00;;
10007;SDS011;5043;41.766;26.204;2024-02-23T04:32:17;35.72;;;25.05;;
10007;SDS011;5043;41.766;26.204;2024-02-23T04:34:42;38.97;;;27.10;;
10007;SDS011;5043;41.766;26.204;2024-02-23T04:37:08;29.70;;;22.88;;
10007;SDS011;5043;41.766;26.204;2024-02-23T04:39:34;25.75;;;21.10;;
10007;SDS011;5043;41.766;26.204;2024-02-23T04:41:59;28.45;;;20.30;;
10007;SDS011;5043;41.766;26.204;2024-02-23T04:44:25;28.58;;;20.73;;
10007;SDS011;5043;41.766;26.204;2024-02-23T04:46:50;28.77;;;23.10;;
10007;SDS011;5043;41.766;26.204;2024-02-23T04:49:16;29.58;;;25.48;;
10007;SDS011;5043;41.766;26.204;2024-02-23T04:51:41;57.05;;;44.00;;
10007;SDS011;5043;41.766;26.204;2024-02-23T04:54:06;31.58;;;25.70;;
10007;SDS011;5043;41.766;26.204;2024-02-23T04:56:32;29.17;;;21.77;;
10007;SDS011;5043;41.766;26.204;2024-02-23T04:58:58;29.00;;;20.80;;
10007;SDS011;5043;41.766;26.204;2024-02-23T05:01:24;27.55;;;21.35;;
10007;SDS011;5043;41.766;26.204;2024-02-23T05:03:49;28.23;;;22.60;;
10007;SDS011;5043;41.766;26.204;2024-02-23T05:06:15;29.33;;;22.13;;
10007;SDS011;5043;41.766;26.204;2024-02-23T05:08:40;30.30;;;22.20;;
10007;SDS011;5043;41.766;26.204;2024-02-23T05:11:06;29.63;;;22.77;;
10007;SDS011;5043;41.766;26.204;2024-02-23T05:13:31;31.50;;;23.48;;
10007;SDS011;5043;41.766;26.204;2024-02-23T05:15:57;25.65;;;21.75;;
10007;SDS011;5043;41.766;26.204;2024-02-23T05:18:22;31.38;;;21.42;;
10007;SDS011;5043;41.766;26.204;2024-02-23T05:20:48;27.17;;;22.35;;
10007;SDS011;5043;41.766;26.204;2024-02-23T05:23:14;31.30;;;23.50;;
10007;SDS011;5043;41.766;26.204;2024-02-23T05:25:41;33.75;;;22.58;;
10007;SDS011;5043;41.766;26.204;2024-02-23T05:28:07;28.40;;;22.88;;
10007;SDS011;5043;41.766;26.204;2024-02-23T05:30:32;29.40;;;23.00;;
10007;SDS011;5043;41.766;26.204;2024-02-23T05:32:58;29.55;;;22.67;;
10007;SDS011;5043;41.766;26.204;2024-02-23T05:35:26;28.85;;;23.15;;
10007;SDS011;5043;41.766;26.204;2024-02-23T05:37:52;34.85;;;25.38;;
10007;SDS011;5043;41.766;26.204;2024-02-23T05:40:18;32.85;;;24.85;;
10007;SDS011;5043;41.766;26.204;2024-02-23T05:42:43;41.33;;;25.17;;
10007;SDS011;5043;41.766;26.204;2024-02-23T05:45:09;30.13;;;23.85;;
10007;SDS011;5043;41.766;26.204;2024-02-23T05:47:35;34.63;;;26.20;;
10007;SDS011;5043;41.766;26.204;2024-02-23T05:50:02;29.65;;;23.23;;
10007;SDS011;5043;41.766;26.204;2024-02-23T05:52:31;33.58;;;25.55;;
10007;SDS011;5043;41.766;26.204;2024-02-23T05:54:57;36.65;;;27.85;;
10007;SDS011;5043;41.766;26.204;2024-02-23T05:57:24;38.17;;;29.15;;
10007;SDS011;5043;41.766;26.204;2024-02-23T05:59:51;30.70;;;24.63;;
10007;SDS011;5043;41.766;26.204;2024-02-23T06:02:16;30.58;;;25.13;;
10007;SDS011;5043;41.766;26.204;2024-02-23T06:04:41;31.17;;;24.27;;
10007;SDS011;5043;41.766;26.204;2024-02-23T06:07:08;28.23;;;23.13;;
10007;SDS011;5043;41.766;26.204;2024-02-23T06:09:33;30.13;;;23.95;;
10007;SDS011;5043;41.766;26.204;2024-02-23T06:11:59;32.30;;;24.33;;
10007;SDS011;5043;41.766;26.204;2024-02-23T06:14:25;34.30;;;26.27;;
10007;SDS011;5043;41.766;26.204;2024-02-23T06:16:50;34.95;;;25.70;;
10007;SDS011;5043;41.766;26.204;2024-02-23T06:19:16;34.50;;;25.45;;
10007;SDS011;5043;41.766;26.204;2024-02-23T06:21:41;35.88;;;25.02;;
10007;SDS011;5043;41.766;26.204;2024-02-23T06:24:07;38.95;;;29.50;;
10007;SDS011;5043;41.766;26.204;2024-02-23T06:26:33;37.65;;;28.52;;
10007;SDS011;5043;41.766;26.204;2024-02-23T06:29:02;42.75;;;28.40;;
10007;SDS011;5043;41.766;26.204;2024-02-23T06:31:28;37.63;;;28.25;;
10007;SDS011;5043;41.766;26.204;2024-02-23T06:33:54;42.72;;;28.70;;
10007;SDS011;5043;41.766;26.204;2024-02-23T06:36:20;39.88;;;27.23;;
10007;SDS011;5043;41.766;26.204;2024-02-23T06:38:45;33.75;;;26.83;;
10007;SDS011;5043;41.766;26.204;2024-02-23T06:41:11;37.22;;;27.92;;
10007;SDS011;5043;41.766;26.204;2024-02-23T06:43:37;37.00;;;24.67;;
10007;SDS011;5043;41.766;26.204;2024-02-23T06:46:09;30.45;;;23.63;;
10007;SDS011;5043;41.766;26.204;2024-02-23T06:48:35;30.38;;;23.23;;
10007;SDS011;5043;41.766;26.204;2024-02-23T06:51:05;34.95;;;24.08;;
10007;SDS011;5043;41.766;26.204;2024-02-23T06:53:34;33.88;;;25.55;;
10007;SDS011;5043;41.766;26.204;2024-02-23T06:56:00;31.02;;;23.98;;
10007;SDS011;5043;41.766;26.204;2024-02-23T06:58:26;28.25;;;23.95;;
10007;SDS011;5043;41.766;26.204;2024-02-23T07:00:51;36.35;;;23.60;;
10007;SDS011;5043;41.766;26.204;2024-02-23T07:03:17;32.72;;;23.48;;
10007;SDS011;5043;41.766;26.204;2024-02-23T07:05:43;31.27;;;23.95;;
10007;SDS011;5043;41.766;26.204;2024-02-23T07:08:08;27.83;;;22.40;;
10007;SDS011;5043;41.766;26.204;2024-02-23T07:10:34;27.13;;;21.27;;
10007;SDS011;5043;41.766;26.204;2024-02-23T07:13:00;25.02;;;20.83;;
10007;SDS011;5043;41.766;26.204;2024-02-23T07:15:25;28.20;;;22.17;;
10007;SDS011;5043;41.766;26.204;2024-02-23T07:17:51;28.52;;;20.92;;
10007;SDS011;5043;41.766;26.204;2024-02-23T07:20:17;25.40;;;19.70;;
10007;SDS011;5043;41.766;26.204;2024-02-23T07:22:46;23.60;;;20.38;;
10007;SDS011;5043;41.766;26.204;2024-02-23T07:25:15;22.08;;;19.70;;
10007;SDS011;5043;41.766;26.204;2024-02-23T07:27:47;25.42;;;20.95;;
10007;SDS011;5043;41.766;26.204;2024-02-23T07:30:16;29.85;;;20.70;;
10007;SDS011;5043;41.766;26.204;2024-02-23T07:32:42;21.75;;;17.88;;
10007;SDS011;5043;41.766;26.204;2024-02-23T07:35:08;22.65;;;18.02;;
10007;SDS011;5043;41.766;26.204;2024-02-23T07:37:34;18.95;;;16.25;;
10007;SDS011;5043;41.766;26.204;2024-02-23T07:40:00;19.05;;;16.98;;
10007;SDS011;5043;41.766;26.204;2024-02-23T07:42:25;19.67;;;17.48;;
10007;SDS011;5043;41.766;26.204;2024-02-23T07:44:52;20.38;;;16.63;;
10007;SDS011;5043;41.766;26.204;2024-02-23T07:47:17;19.40;;;15.05;;
10007;SDS011;5043;41.766;26.204;2024-02-23T07:49:43;17.33;;;15.50;;
10007;SDS011;5043;41.766;26.204;2024-02-23T07:52:09;17.58;;;15.38;;
10007;SDS011;5043;41.766;26.204;2024-02-23T07:54:34;20.40;;;14.43;;
10007;SDS011;5043;41.766;26.204;2024-02-23T07:57:00;19.48;;;15.35;;
10007;SDS011;5043;41.766;26.204;2024-02-23T07:59:26;19.13;;;14.60;;
10007;SDS011;5043;41.766;26.204;2024-02-23T08:01:53;19.20;;;16.38;;
10007;SDS011;5043;41.766;26.204;2024-02-23T08:04:18;21.73;;;16.05;;
10007;SDS011;5043;41.766;26.204;2024-02-23T08:06:44;20.30;;;15.52;;
10007;SDS011;5043;41.766;26.204;2024-02-23T08:09:10;19.48;;;15.27;;
10007;SDS011;5043;41.766;26.204;2024-02-23T08:11:36;19.05;;;15.75;;
10007;SDS011;5043;41.766;26.204;2024-02-23T08:14:01;20.25;;;14.55;;
10007;SDS011;5043;41.766;26.204;2024-02-23T08:16:28;19.33;;;16.05;;
10007;SDS011;5043;41.766;26.204;2024-02-23T08:18:54;16.75;;;14.25;;
10007;SDS011;5043;41.766;26.204;2024-02-23T08:21:20;17.60;;;15.13;;
10007;SDS011;5043;41.766;26.204;2024-02-23T08:23:45;19.25;;;14.77;;
10007;SDS011;5043;41.766;26.204;2024-02-23T08:26:11;15.95;;;13.60;;
10007;SDS011;5043;41.766;26.204;2024-02-23T08:28:37;17.77;;;13.20;;
10007;SDS011;5043;41.766;26.204;2024-02-23T08:31:03;15.20;;;13.32;;
10007;SDS011;5043;41.766;26.204;2024-02-23T08:33:30;13.43;;;11.95;;
10007;SDS011;5043;41.766;26.204;2024-02-23T08:35:56;15.57;;;11.88;;
10007;SDS011;5043;41.766;26.204;2024-02-23T08:38:21;10.98;;;9.38;;
10007;SDS011;5043;41.766;26.204;2024-02-23T08:40:47;10.95;;;9.52;;
10007;SDS011;5043;41.766;26.204;2024-02-23T08:43:13;13.23;;;10.02;;
10007;SDS011;5043;41.766;26.204;2024-02-23T08:45:39;10.82;;;8.65;;
10007;SDS011;5043;41.766;26.204;2024-02-23T08:48:05;10.43;;;7.28;;
10007;SDS011;5043;41.766;26.204;2024-02-23T08:50:33;12.70;;;7.57;;
10007;SDS011;5043;41.766;26.204;2024-02-23T08:52:59;10.10;;;8.13;;
10007;SDS011;5043;41.766;26.204;2024-02-23T08:55:25;9.10;;;8.00;;
10007;SDS011;5043;41.766;26.204;2024-02-23T08:57:50;10.00;;;8.07;;
10007;SDS011;5043;41.766;26.204;2024-02-23T09:00:16;8.75;;;6.53;;
10007;SDS011;5043;41.766;26.204;2024-02-23T09:02:42;10.15;;;7.25;;
10007;SDS011;5043;41.766;26.204;2024-02-23T09:05:08;6.53;;;5.65;;
10007;SDS011;5043;41.766;26.204;2024-02-23T09:07:34;10.88;;;6.18;;
10007;SDS011;5043;41.766;26.204;2024-02-23T09:10:01;8.63;;;7.10;;
10007;SDS011;5043;41.766;26.204;2024-02-23T09:12:31;6.88;;;6.05;;
10007;SDS011;5043;41.766;26.204;2024-02-23T09:14:57;7.95;;;6.68;;
10007;SDS011;5043;41.766;26.204;2024-02-23T09:17:22;8.30;;;6.95;;
10007;SDS011;5043;41.766;26.204;2024-02-23T09:19:48;12.98;;;7.25;;
10007;SDS011;5043;41.766;26.204;2024-02-23T09:22:14;9.68;;;6.88;;
10007;SDS011;5043;41.766;26.204;2024-02-23T09:24:41;7.97;;;6.55;;
10007;SDS011;5043;41.766;26.204;2024-02-23T09:27:07;4.15;;;3.75;;
10007;SDS011;5043;41.766;26.204;2024-02-23T09:29:33;7.30;;;4.00;;
10007;SDS011;5043;41.766;26.204;2024-02-23T09:31:59;4.47;;;3.20;;
10007;SDS011;5043;41.766;26.204;2024-02-23T09:34:25;3.35;;;2.83;;
10007;SDS011;5043;41.766;26.204;2024-02-23T09:36:51;7.65;;;3.85;;
10007;SDS011;5043;41.766;26.204;2024-02-23T09:39:17;4.15;;;3.22;;
10007;SDS011;5043;41.766;26.204;2024-02-23T09:41:43;2.80;;;2.55;;
10007;SDS011;5043;41.766;26.204;2024-02-23T09:44:09;3.40;;;2.90;;
10007;SDS011;5043;41.766;26.204;2024-02-23T09:46:38;3.13;;;2.80;;
10007;SDS011;5043;41.766;26.204;2024-02-23T09:49:05;4.15;;;2.22;;
10007;SDS011;5043;41.766;26.204;2024-02-23T09:51:33;3.65;;;2.50;;
10007;SDS011;5043;41.766;26.204;2024-02-23T09:54:00;3.17;;;2.88;;
10007;SDS011;5043;41.766;26.204;2024-02-23T09:56:28;3.92;;;3.40;;
10007;SDS011;5043;41.766;26.204;2024-02-23T09:58:55;4.75;;;2.75;;
10007;SDS011;5043;41.766;26.204;2024-02-23T10:01:26;2.88;;;2.30;;
10007;SDS011;5043;41.766;26.204;2024-02-23T10:03:56;4.93;;;2.35;;
10007;SDS011;5043;41.766;26.204;2024-02-23T10:06:27;5.00;;;3.00;;
10007;SDS011;5043;41.766;26.204;2024-02-23T10:08:52;2.88;;;2.63;;
10007;SDS011;5043;41.766;26.204;2024-02-23T10:11:22;5.22;;;2.63;;
10007;SDS011;5043;41.766;26.204;2024-02-23T10:13:49;4.22;;;2.95;;
10007;SDS011;5043;41.766;26.204;2024-02-23T10:16:18;2.83;;;2.60;;
10007;SDS011;5043;41.766;26.204;2024-02-23T10:18:48;2.40;;;2.20;;
10007;SDS011;5043;41.766;26.204;2024-02-23T10:21:14;5.07;;;2.83;;
10007;SDS011;5043;41.766;26.204;2024-02-23T10:23:41;2.63;;;2.42;;
10007;SDS011;5043;41.766;26.204;2024-02-23T10:26:07;3.03;;;2.72;;
10007;SDS011;5043;41.766;26.204;2024-02-23T10:28:36;3.08;;;2.65;;
10007;SDS011;5043;41.766;26.204;2024-02-23T10:31:06;2.72;;;2.13;;
10007;SDS011;5043;41.766;26.204;2024-02-23T10:33:32;4.95;;;2.97;;
10007;SDS011;5043;41.766;26.204;2024-02-23T10:35:57;4.00;;;2.70;;
10007;SDS011;5043;41.766;26.204;2024-02-23T10:38:26;2.90;;;2.65;;
10007;SDS011;5043;41.766;26.204;2024-02-23T10:40:56;3.35;;;3.05;;
10007;SDS011;5043;41.766;26.204;2024-02-23T10:43:26;7.65;;;2.78;;
10007;SDS011;5043;41.766;26.204;2024-02-23T10:45:59;3.58;;;2.80;;
10007;SDS011;5043;41.766;26.204;2024-02-23T10:48:33;3.90;;;2.78;;
10007;SDS011;5043;41.766;26.204;2024-02-23T10:51:00;2.83;;;2.53;;
10007;SDS011;5043;41.766;26.204;2024-02-23T10:53:25;3.22;;;2.72;;
10007;SDS011;5043;41.766;26.204;2024-02-23T10:55:55;2.80;;;2.60;;
10007;SDS011;5043;41.766;26.204;2024-02-23T10:58:25;2.67;;;2.47;;
10007;SDS011;5043;41.766;26.204;2024-02-23T11:00:50;2.22;;;2.03;;
10007;SDS011;5043;41.766;26.204;2024-02-23T11:03:17;3.85;;;2.28;;
10007;SDS011;5043;41.766;26.204;2024-02-23T11:05:47;2.65;;;2.20;;
10007;SDS011;5043;41.766;26.204;2024-02-23T11:08:14;2.72;;;2.30;;
10007;SDS011;5043;41.766;26.204;2024-02-23T11:10:43;2.50;;;2.30;;
10007;SDS011;5043;41.766;26.204;2024-02-23T11:13:15;2.92;;;2.63;;
10007;SDS011;5043;41.766;26.204;2024-02-23T11:15:41;4.90;;;2.40;;
10007;SDS011;5043;41.766;26.204;2024-02-23T11:18:23;2.67;;;2.42;;
10007;SDS011;5043;41.766;26.204;2024-02-23T11:21:00;3.17;;;2.42;;
10007;SDS011;5043;41.766;26.204;2024-02-23T11:23:38;4.07;;;2.70;;
10007;SDS011;5043;41.766;26.204;2024-02-23T11:26:12;2.80;;;2.60;;
10007;SDS011;5043;41.766;26.204;2024-02-23T11:28:56;2.97;;;2.70;;
10007;SDS011;5043;41.766;26.204;2024-02-23T11:31:24;2.88;;;2.50;;
10007;SDS011;5043;41.766;26.204;2024-02-23T11:33:54;3.42;;;2.60;;
10007;SDS011;5043;41.766;26.204;2024-02-23T11:36:28;2.42;;;2.22;;
10007;SDS011;5043;41.766;26.204;2024-02-23T11:38:58;2.78;;;2.55;;
10007;SDS011;5043;41.766;26.204;2024-02-23T11:41:25;3.30;;;2.47;;
10007;SDS011;5043;41.766;26.204;2024-02-23T11:43:53;2.92;;;2.42;;
10007;SDS011;5043;41.766;26.204;2024-02-23T11:46:20;2.20;;;2.05;;
10007;SDS011;5043;41.766;26.204;2024-02-23T11:48:47;3.00;;;2.30;;
10007;SDS011;5043;41.766;26.204;2024-02-23T11:51:23;1.77;;;1.67;;
10007;SDS011;5043;41.766;26.204;2024-02-23T11:53:51;2.53;;;2.00;;
10007;SDS011;5043;41.766;26.204;2024-02-23T11:56:18;2.25;;;1.88;;
10007;SDS011;5043;41.766;26.204;2024-02-23T11:58:46;1.70;;;1.60;;
10007;SDS011;5043;41.766;26.204;2024-02-23T12:01:12;2.00;;;1.80;;
10007;SDS011;5043;41.766;26.204;2024-02-23T12:03:37;1.85;;;1.73;;
10007;SDS011;5043;41.766;26.204;2024-02-23T12:06:04;2.83;;;1.98;;
10007;SDS011;5043;41.766;26.204;2024-02-23T12:08:31;3.42;;;2.13;;
10007;SDS011;5043;41.766;26.204;2024-02-23T12:11:03;2.40;;;2.20;;
10007;SDS011;5043;41.766;26.204;2024-02-23T12:13:30;2.95;;;2.20;;
10007;SDS011;5043;41.766;26.204;2024-02-23T12:15:57;2.40;;;2.15;;
10007;SDS011;5043;41.766;26.204;2024-02-23T12:18:23;2.13;;;1.83;;
10007;SDS011;5043;41.766;26.204;2024-02-23T12:20:51;1.90;;;1.80;;
10007;SDS011;5043;41.766;26.204;2024-02-23T12:23:18;4.43;;;2.35;;
10007;SDS011;5043;41.766;26.204;2024-02-23T12:26:05;2.67;;;2.03;;
10007;SDS011;5043;41.766;26.204;2024-02-23T12:28:30;3.17;;;2.00;;
10007;SDS011;5043;41.766;26.204;2024-02-23T12:30:59;2.38;;;2.17;;
10007;SDS011;5043;41.766;26.204;2024-02-23T12:33:32;2.00;;;1.90;;
10007;SDS011;5043;41.766;26.204;2024-02-23T12:36:05;2.22;;;2.03;;
10007;SDS011;5043;41.766;26.204;2024-02-23T12:38:32;2.50;;;2.30;;
10007;SDS011;5043;41.766;26.204;2024-02-23T12:40:59;2.30;;;2.10;;
10007;SDS011;5043;41.766;26.204;2024-02-23T12:43:26;2.50;;;2.25;;
10007;SDS011;5043;41.766;26.204;2024-02-23T12:45:53;3.40;;;2.55;;
10007;SDS011;5043;41.766;26.204;2024-02-23T12:48:22;2.42;;;1.80;;
10007;SDS011;5043;41.766;26.204;2024-02-23T12:50:48;3.17;;;2.08;;
10007;SDS011;5043;41.766;26.204;2024-02-23T12:53:31;4.10;;;1.90;;
10007;SDS011;5043;41.766;26.204;2024-02-23T12:56:04;2.35;;;1.48;;
10007;SDS011;5043;41.766;26.204;2024-02-23T12:58:34;2.22;;;2.03;;
10007;SDS011;5043;41.766;26.204;2024-02-23T13:01:01;4.55;;;2.00;;
10007;SDS011;5043;41.766;26.204;2024-02-23T13:03:28;4.22;;;3.13;;
10007;SDS011;5043;41.766;26.204;2024-02-23T13:05:54;2.78;;;2.38;;
10007;SDS011;5043;41.766;26.204;2024-02-23T13:08:21;3.25;;;2.95;;
10007;SDS011;5043;41.766;26.204;2024-02-23T13:10:48;2.78;;;2.58;;
10007;SDS011;5043;41.766;26.204;2024-02-23T13:13:14;2.63;;;2.38;;
10007;SDS011;5043;41.766;26.204;2024-02-23T13:15:43;2.40;;;2.20;;
10007;SDS011;5043;41.766;26.204;2024-02-23T13:18:09;2.60;;;2.40;;
10007;SDS011;5043;41.766;26.204;2024-02-23T13:20:35;2.03;;;1.85;;
10007;SDS011;5043;41.766;26.204;2024-02-23T13:23:02;3.60;;;1.95;;
10007;SDS011;5043;41.766;26.204;2024-02-23T13:25:28;2.13;;;2.00;;
10007;SDS011;5043;41.766;26.204;2024-02-23T13:27:53;2.40;;;2.20;;
10007;SDS011;5043;41.766;26.204;2024-02-23T13:30:19;2.42;;;2.20;;
10007;SDS011;5043;41.766;26.204;2024-02-23T13:32:45;5.25;;;2.40;;
10007;SDS011;5043;41.766;26.204;2024-02-23T13:35:11;1.77;;;1.67;;
10007;SDS011;5043;41.766;26.204;2024-02-23T13:37:39;5.25;;;2.63;;
10007;SDS011;5043;41.766;26.204;2024-02-23T13:40:06;2.50;;;2.33;;
10007;SDS011;5043;41.766;26.204;2024-02-23T13:42:34;2.58;;;1.88;;
10007;SDS011;5043;41.766;26.204;2024-02-23T13:45:00;1.85;;;1.70;;
10007;SDS011;5043;41.766;26.204;2024-02-23T13:47:25;4.43;;;2.30;;
10007;SDS011;5043;41.766;26.204;2024-02-23T13:49:51;5.55;;;4.90;;
10007;SDS011;5043;41.766;26.204;2024-02-23T13:52:17;2.10;;;1.90;;
10007;SDS011;5043;41.766;26.204;2024-02-23T13:54:42;2.03;;;1.88;;
10007;SDS011;5043;41.766;26.204;2024-02-23T13:57:08;3.45;;;2.42;;
10007;SDS011;5043;41.766;26.204;2024-02-23T13:59:34;2.35;;;2.10;;
10007;SDS011;5043;41.766;26.204;2024-02-23T14:02:00;1.90;;;1.70;;
10007;SDS011;5043;41.766;26.204;2024-02-23T14:04:25;2.80;;;2.55;;
10007;SDS011;5043;41.766;26.204;2024-02-23T14:06:51;2.17;;;1.98;;
10007;SDS011;5043;41.766;26.204;2024-02-23T14:09:17;2.00;;;1.90;;
10007;SDS011;5043;41.766;26.204;2024-02-23T14:11:43;2.58;;;2.38;;
10007;SDS011;5043;41.766;26.204;2024-02-23T14:14:10;6.45;;;2.38;;
10007;SDS011;5043;41.766;26.204;2024-02-23T14:16:36;4.45;;;2.38;;
10007;SDS011;5043;41.766;26.204;2024-02-23T14:19:02;4.07;;;2.20;;
10007;SDS011;5043;41.766;26.204;2024-02-23T14:21:27;2.65;;;2.10;;
10007;SDS011;5043;41.766;26.204;2024-02-23T14:23:53;2.70;;;2.50;;
10007;SDS011;5043;41.766;26.204;2024-02-23T14:26:19;4.20;;;2.38;;
10007;SDS011;5043;41.766;26.204;2024-02-23T14:28:44;2.50;;;2.30;;